Portada
METAR-TAF:

METAR-TAF

Aeroports :

Monroe, Carolina del Nord, Estats Units d'Amèrica

latitud: 35-01-01N, longitud: 080-37-14W, altitud: 207 m

Observació

L'informe es va fer fa 37 minuts, a les 14:53 UTC
Vent 10 kt del Nord/Nord-Est
Temperatura 6°C
Humitat 70%
Pressió 1022 hPa
Visibilitat: 16.1 km
Núvols disperses a una alçada de 4600 ft
Cel ennuvolat a una alçada de 8000 ft
Cel cobert a una alçada de 9500 ft
pluja

METAR: KEQY 151453Z AUTO 02010KT 10SM -RA SCT046 BKN080 OVC095 06/01 A3018 RMK AO2 RAB49 SLP238 P0000 60000 T00560006 58002

Hora: 10:30 (15:30 UTC)


TAF: manca

Observacions i pronòstics meteorològics de més de 4000 aeroports (METAR i TAF).

Les estacions disponibles són els punts grocs i vermells al mapa.

Posi el ratolí al punt desitjat per veure el nom de l'estació.

Feu clic per veure les observacions i els pronòstics meteorològics.

Per canviar el mapa: feu clic els botons verds amb una creu de color negre per apropar; al botó verd amb un guió per allunyar la imatge; o en les fletxes verdes per a mapes adjacents.


METAR-TAF: